Swanburg, Minnesota
Current Conditions -  °F | °C
As of 11:34 PM on Wednesday 22 Oct 2014 (Local Time) from KPWC Reporting Station
Moderate Rain Moderate Rain  
Wind Chill: 50°   Ceiling: 3000
Heat Index: 50°   Visibility: 7mi
Dew Point: 46°   Wind: 3mph
Humidity: 87%   Direction: 180°S
Pressure: 29.98"   Gusts: NA
Location:  46.6535°N, 94.5389°W
Report Text: KPWC 230434Z AUTO 18003KT 7SM RA BKN030 OVC045 10/08 A2998 RMK AO2 P0006
Loading
Personal Weather Stations






























Interactive Weather Map
Tropical Storm Tracking
New forecast layout! Learn more

10-Day Weather Forecast

Advertisements
Track Severe Weather on mobile